Strona główna
METAR-TAF:

METAR-TAF

Lotnisko :

Port lotniczy Pecz-Pogány

Pecz, Węgry

Szerokość geograficzna: 46-06N, Długość geograficzna: 018-14E, wysokość: 201 m

Aktualna obserwacja pogody

Raport powstał 6 godziny i 2 minut temu, godzina 16:45 UTC
Wiatr 4 kt od południe
Temperatura 25°C
Wilgotność 50%
Ciśnienie 1016 hPa
Widzialność 10 km lub więcej
Brak chmur poniżej 1500 m i brak chmur cumulonimbus

METAR: LHPP 171645Z 19004KT CAVOK 25/14 Q1016

czas: 00:47 (22:47 UTC)

Prognoza

Raport powstał 8 godziny i 32 minut temu, godzina 14:15 UTC
Prognoza ważna od 17 godzina 15 UTC do 17 godzina 24 UTC
Wiatr 5 kt od południowo-południowy zachód
Widzialność 10 km lub więcej
Brak chmur poniżej 1500 m i brak chmur cumulonimbus

TAF: LHPP 171415Z 1715/1724 21005KT CAVOK

Obserwacja i prognoza pogody dla ponad 4000 lotnisk (raport METAR i TAF).

Dostępne stacje oznaczono żółtymi i czerwonymi punktami na mapie.

Najedź kursorem aby zobaczyć nazwę stacji.

Kliknij aby zobaczyć obserwacje i prognozy pogody.

Aby zmienić mapę: kliknij na zielony przycisk z czarnym krzyżykiem, aby powiększyć; na zielony przycisk z myślnikiem, aby pomniejszyć; na zielone strzałki, aby przejść do map sąsiednich.


METAR-TAF: